sensor_id;sensor_type;location;lat;lon;timestamp;temperature;humidity
16521;DHT22;8373;48.110;11.522;2022-11-25T00:00:25;5.10;89.00
16521;DHT22;8373;48.110;11.522;2022-11-25T00:02:52;5.10;89.00
16521;DHT22;8373;48.110;11.522;2022-11-25T00:05:19;5.10;89.10
16521;DHT22;8373;48.110;11.522;2022-11-25T00:07:45;5.10;89.40
16521;DHT22;8373;48.110;11.522;2022-11-25T00:10:12;5.20;89.30
16521;DHT22;8373;48.110;11.522;2022-11-25T00:12:39;5.20;88.60
16521;DHT22;8373;48.110;11.522;2022-11-25T00:15:08;5.10;88.30
16521;DHT22;8373;48.110;11.522;2022-11-25T00:17:35;5.00;88.50
16521;DHT22;8373;48.110;11.522;2022-11-25T00:20:02;5.00;88.80
16521;DHT22;8373;48.110;11.522;2022-11-25T00:22:30;5.00;89.00
16521;DHT22;8373;48.110;11.522;2022-11-25T00:24:57;5.00;89.20
16521;DHT22;8373;48.110;11.522;2022-11-25T00:27:24;5.00;89.00
16521;DHT22;8373;48.110;11.522;2022-11-25T00:29:51;5.00;89.20
16521;DHT22;8373;48.110;11.522;2022-11-25T00:32:19;5.10;89.00
16521;DHT22;8373;48.110;11.522;2022-11-25T00:34:46;5.10;88.60
16521;DHT22;8373;48.110;11.522;2022-11-25T00:37:13;5.10;88.30
16521;DHT22;8373;48.110;11.522;2022-11-25T00:39:40;5.10;88.00
16521;DHT22;8373;48.110;11.522;2022-11-25T00:42:08;5.00;88.00
16521;DHT22;8373;48.110;11.522;2022-11-25T00:44:52;5.00;88.20
16521;DHT22;8373;48.110;11.522;2022-11-25T00:47:21;5.00;88.20
16521;DHT22;8373;48.110;11.522;2022-11-25T00:49:50;5.00;88.50
16521;DHT22;8373;48.110;11.522;2022-11-25T00:52:19;5.00;88.20
16521;DHT22;8373;48.110;11.522;2022-11-25T00:54:47;5.00;87.90
16521;DHT22;8373;48.110;11.522;2022-11-25T00:57:15;5.00;87.70
16521;DHT22;8373;48.110;11.522;2022-11-25T00:59:42;4.90;87.30
16521;DHT22;8373;48.110;11.522;2022-11-25T01:02:10;4.90;87.60
16521;DHT22;8373;48.110;11.522;2022-11-25T01:04:39;4.90;87.80
16521;DHT22;8373;48.110;11.522;2022-11-25T01:07:06;4.90;88.10
16521;DHT22;8373;48.110;11.522;2022-11-25T01:09:33;4.90;88.10
16521;DHT22;8373;48.110;11.522;2022-11-25T01:12:00;4.90;88.10
16521;DHT22;8373;48.110;11.522;2022-11-25T01:14:27;4.90;87.80
16521;DHT22;8373;48.110;11.522;2022-11-25T01:16:54;4.90;87.60
16521;DHT22;8373;48.110;11.522;2022-11-25T01:19:21;4.80;87.60
16521;DHT22;8373;48.110;11.522;2022-11-25T01:21:49;4.80;87.90
16521;DHT22;8373;48.110;11.522;2022-11-25T01:24:17;4.80;88.00
16521;DHT22;8373;48.110;11.522;2022-11-25T01:26:44;4.80;87.60
16521;DHT22;8373;48.110;11.522;2022-11-25T01:29:14;4.90;87.70
16521;DHT22;8373;48.110;11.522;2022-11-25T01:31:42;4.90;87.50
16521;DHT22;8373;48.110;11.522;2022-11-25T01:34:12;5.00;87.40
16521;DHT22;8373;48.110;11.522;2022-11-25T01:36:40;5.00;87.10
16521;DHT22;8373;48.110;11.522;2022-11-25T01:41:40;4.80;86.90
16521;DHT22;8373;48.110;11.522;2022-11-25T01:44:10;4.80;87.10
16521;DHT22;8373;48.110;11.522;2022-11-25T01:46:56;4.90;87.50
16521;DHT22;8373;48.110;11.522;2022-11-25T01:49:29;5.00;87.70
16521;DHT22;8373;48.110;11.522;2022-11-25T01:52:02;5.00;86.80
16521;DHT22;8373;48.110;11.522;2022-11-25T01:54:35;5.10;86.50
16521;DHT22;8373;48.110;11.522;2022-11-25T01:57:09;5.00;86.30
16521;DHT22;8373;48.110;11.522;2022-11-25T01:59:40;5.00;86.30
16521;DHT22;8373;48.110;11.522;2022-11-25T02:02:08;5.00;86.70
16521;DHT22;8373;48.110;11.522;2022-11-25T02:04:37;4.90;86.80
16521;DHT22;8373;48.110;11.522;2022-11-25T02:07:08;4.90;86.90
16521;DHT22;8373;48.110;11.522;2022-11-25T02:09:41;4.90;87.10
16521;DHT22;8373;48.110;11.522;2022-11-25T02:12:09;4.90;87.10
16521;DHT22;8373;48.110;11.522;2022-11-25T02:14:36;4.90;86.90
16521;DHT22;8373;48.110;11.522;2022-11-25T02:17:03;4.90;86.60
16521;DHT22;8373;48.110;11.522;2022-11-25T02:19:42;4.90;86.80
16521;DHT22;8373;48.110;11.522;2022-11-25T02:22:18;4.90;86.70
16521;DHT22;8373;48.110;11.522;2022-11-25T02:24:53;5.00;87.10
16521;DHT22;8373;48.110;11.522;2022-11-25T02:27:23;5.10;87.60
16521;DHT22;8373;48.110;11.522;2022-11-25T02:29:50;5.20;87.30
16521;DHT22;8373;48.110;11.522;2022-11-25T02:32:20;5.20;86.60
16521;DHT22;8373;48.110;11.522;2022-11-25T02:34:48;5.30;85.80
16521;DHT22;8373;48.110;11.522;2022-11-25T02:37:18;5.20;85.30
16521;DHT22;8373;48.110;11.522;2022-11-25T02:39:46;5.20;85.30
16521;DHT22;8373;48.110;11.522;2022-11-25T02:42:14;5.20;85.70
16521;DHT22;8373;48.110;11.522;2022-11-25T02:44:46;5.20;85.90
16521;DHT22;8373;48.110;11.522;2022-11-25T02:47:13;5.20;85.70
16521;DHT22;8373;48.110;11.522;2022-11-25T02:49:40;5.30;85.70
16521;DHT22;8373;48.110;11.522;2022-11-25T02:52:07;5.30;85.20
16521;DHT22;8373;48.110;11.522;2022-11-25T02:54:34;5.30;84.90
16521;DHT22;8373;48.110;11.522;2022-11-25T02:57:01;5.30;84.60
16521;DHT22;8373;48.110;11.522;2022-11-25T02:59:28;5.40;85.20
16521;DHT22;8373;48.110;11.522;2022-11-25T03:01:56;5.40;85.20
16521;DHT22;8373;48.110;11.522;2022-11-25T03:04:23;5.40;85.30
16521;DHT22;8373;48.110;11.522;2022-11-25T03:06:50;5.50;84.80
16521;DHT22;8373;48.110;11.522;2022-11-25T03:09:17;5.50;84.50
16521;DHT22;8373;48.110;11.522;2022-11-25T03:11:44;5.40;84.00
16521;DHT22;8373;48.110;11.522;2022-11-25T03:14:28;5.40;84.50
16521;DHT22;8373;48.110;11.522;2022-11-25T03:16:57;5.50;84.90
16521;DHT22;8373;48.110;11.522;2022-11-25T03:19:24;5.50;85.00
16521;DHT22;8373;48.110;11.522;2022-11-25T03:21:51;5.50;84.90
16521;DHT22;8373;48.110;11.522;2022-11-25T03:24:17;5.60;85.00
16521;DHT22;8373;48.110;11.522;2022-11-25T03:26:44;5.60;85.10
16521;DHT22;8373;48.110;11.522;2022-11-25T03:29:11;5.60;85.10
16521;DHT22;8373;48.110;11.522;2022-11-25T03:31:38;5.60;84.80
16521;DHT22;8373;48.110;11.522;2022-11-25T03:34:07;5.60;84.90
16521;DHT22;8373;48.110;11.522;2022-11-25T03:36:34;5.60;85.00
16521;DHT22;8373;48.110;11.522;2022-11-25T03:39:01;5.60;85.10
16521;DHT22;8373;48.110;11.522;2022-11-25T03:41:28;5.50;85.00
16521;DHT22;8373;48.110;11.522;2022-11-25T03:43:55;5.50;85.20
16521;DHT22;8373;48.110;11.522;2022-11-25T03:46:22;5.50;85.30
16521;DHT22;8373;48.110;11.522;2022-11-25T03:48:49;5.50;85.10
16521;DHT22;8373;48.110;11.522;2022-11-25T03:51:17;5.50;85.00
16521;DHT22;8373;48.110;11.522;2022-11-25T03:53:44;5.50;84.90
16521;DHT22;8373;48.110;11.522;2022-11-25T03:56:12;5.50;85.00
16521;DHT22;8373;48.110;11.522;2022-11-25T03:58:38;5.50;85.20
16521;DHT22;8373;48.110;11.522;2022-11-25T04:01:05;5.50;85.30
16521;DHT22;8373;48.110;11.522;2022-11-25T04:03:33;5.50;85.50
16521;DHT22;8373;48.110;11.522;2022-11-25T04:06:00;5.50;85.70
16521;DHT22;8373;48.110;11.522;2022-11-25T04:08:28;5.40;85.70
16521;DHT22;8373;48.110;11.522;2022-11-25T04:10:55;5.40;85.80
16521;DHT22;8373;48.110;11.522;2022-11-25T04:13:22;5.40;86.00
16521;DHT22;8373;48.110;11.522;2022-11-25T04:15:49;5.40;86.40
16521;DHT22;8373;48.110;11.522;2022-11-25T04:18:17;5.40;86.60
16521;DHT22;8373;48.110;11.522;2022-11-25T04:20:45;5.30;86.30
16521;DHT22;8373;48.110;11.522;2022-11-25T04:23:12;5.30;86.30
16521;DHT22;8373;48.110;11.522;2022-11-25T04:25:41;5.30;86.50
16521;DHT22;8373;48.110;11.522;2022-11-25T04:28:08;5.30;86.70
16521;DHT22;8373;48.110;11.522;2022-11-25T04:30:36;5.40;86.90
16521;DHT22;8373;48.110;11.522;2022-11-25T04:33:03;5.40;86.80
16521;DHT22;8373;48.110;11.522;2022-11-25T04:35:30;5.40;86.90
16521;DHT22;8373;48.110;11.522;2022-11-25T04:37:57;5.40;87.10
16521;DHT22;8373;48.110;11.522;2022-11-25T04:40:24;5.40;87.10
16521;DHT22;8373;48.110;11.522;2022-11-25T04:42:52;5.50;87.40
16521;DHT22;8373;48.110;11.522;2022-11-25T04:45:19;5.50;87.40
16521;DHT22;8373;48.110;11.522;2022-11-25T04:47:46;5.50;87.10
16521;DHT22;8373;48.110;11.522;2022-11-25T04:50:17;5.50;87.00
16521;DHT22;8373;48.110;11.522;2022-11-25T04:52:44;5.50;87.10
16521;DHT22;8373;48.110;11.522;2022-11-25T04:55:11;5.50;87.10
16521;DHT22;8373;48.110;11.522;2022-11-25T04:57:38;5.60;87.10
16521;DHT22;8373;48.110;11.522;2022-11-25T05:00:08;5.60;86.90
16521;DHT22;8373;48.110;11.522;2022-11-25T05:02:34;5.50;86.80
16521;DHT22;8373;48.110;11.522;2022-11-25T05:05:02;5.50;87.20
16521;DHT22;8373;48.110;11.522;2022-11-25T05:07:29;5.50;87.10
16521;DHT22;8373;48.110;11.522;2022-11-25T05:09:56;5.60;87.20
16521;DHT22;8373;48.110;11.522;2022-11-25T05:12:25;5.60;86.90
16521;DHT22;8373;48.110;11.522;2022-11-25T05:14:53;5.60;86.60
16521;DHT22;8373;48.110;11.522;2022-11-25T05:17:24;5.60;86.50
16521;DHT22;8373;48.110;11.522;2022-11-25T05:19:52;5.50;86.10
16521;DHT22;8373;48.110;11.522;2022-11-25T05:22:21;5.50;86.00
16521;DHT22;8373;48.110;11.522;2022-11-25T05:24:48;5.50;86.00
16521;DHT22;8373;48.110;11.522;2022-11-25T05:27:15;5.40;85.30
16521;DHT22;8373;48.110;11.522;2022-11-25T05:29:42;5.40;85.40
16521;DHT22;8373;48.110;11.522;2022-11-25T05:32:10;5.40;85.50
16521;DHT22;8373;48.110;11.522;2022-11-25T05:34:38;5.30;85.60
16521;DHT22;8373;48.110;11.522;2022-11-25T05:37:06;5.30;85.70
16521;DHT22;8373;48.110;11.522;2022-11-25T05:39:33;5.30;85.60
16521;DHT22;8373;48.110;11.522;2022-11-25T05:42:00;5.30;85.60
16521;DHT22;8373;48.110;11.522;2022-11-25T05:44:27;5.20;85.70
16521;DHT22;8373;48.110;11.522;2022-11-25T05:46:54;5.20;85.80
16521;DHT22;8373;48.110;11.522;2022-11-25T05:49:21;5.10;85.70
16521;DHT22;8373;48.110;11.522;2022-11-25T05:51:49;5.10;85.70
16521;DHT22;8373;48.110;11.522;2022-11-25T05:54:16;5.00;85.60
16521;DHT22;8373;48.110;11.522;2022-11-25T05:56:43;4.90;85.70
16521;DHT22;8373;48.110;11.522;2022-11-25T05:59:10;4.90;85.90
16521;DHT22;8373;48.110;11.522;2022-11-25T06:01:37;4.90;86.10
16521;DHT22;8373;48.110;11.522;2022-11-25T06:04:04;4.90;86.40
16521;DHT22;8373;48.110;11.522;2022-11-25T06:06:31;4.90;86.70
16521;DHT22;8373;48.110;11.522;2022-11-25T06:09:00;4.90;86.90
16521;DHT22;8373;48.110;11.522;2022-11-25T06:11:27;5.00;86.90
16521;DHT22;8373;48.110;11.522;2022-11-25T06:13:55;5.00;86.70
16521;DHT22;8373;48.110;11.522;2022-11-25T06:16:23;5.00;86.40
16521;DHT22;8373;48.110;11.522;2022-11-25T06:18:50;5.00;86.30
16521;DHT22;8373;48.110;11.522;2022-11-25T06:21:17;5.00;86.50
16521;DHT22;8373;48.110;11.522;2022-11-25T06:23:45;5.00;86.40
16521;DHT22;8373;48.110;11.522;2022-11-25T06:26:15;5.00;86.50
16521;DHT22;8373;48.110;11.522;2022-11-25T06:28:42;5.10;86.70
16521;DHT22;8373;48.110;11.522;2022-11-25T06:31:11;5.20;86.30
16521;DHT22;8373;48.110;11.522;2022-11-25T06:33:38;5.20;85.90
16521;DHT22;8373;48.110;11.522;2022-11-25T06:36:07;5.30;85.70
16521;DHT22;8373;48.110;11.522;2022-11-25T06:38:38;5.20;85.60
16521;DHT22;8373;48.110;11.522;2022-11-25T06:41:05;5.30;86.00
16521;DHT22;8373;48.110;11.522;2022-11-25T06:43:33;5.30;85.90
16521;DHT22;8373;48.110;11.522;2022-11-25T06:46:02;5.30;85.30
16521;DHT22;8373;48.110;11.522;2022-11-25T06:48:29;5.30;84.70
16521;DHT22;8373;48.110;11.522;2022-11-25T06:50:57;5.20;84.90
16521;DHT22;8373;48.110;11.522;2022-11-25T06:53:24;5.20;84.90
16521;DHT22;8373;48.110;11.522;2022-11-25T06:56:01;5.20;84.90
16521;DHT22;8373;48.110;11.522;2022-11-25T06:58:29;5.30;85.00
16521;DHT22;8373;48.110;11.522;2022-11-25T07:01:01;5.30;84.90
16521;DHT22;8373;48.110;11.522;2022-11-25T07:03:29;5.40;84.30
16521;DHT22;8373;48.110;11.522;2022-11-25T07:05:56;5.40;84.10
16521;DHT22;8373;48.110;11.522;2022-11-25T07:08:23;5.40;84.30
16521;DHT22;8373;48.110;11.522;2022-11-25T07:10:50;5.60;84.40
16521;DHT22;8373;48.110;11.522;2022-11-25T07:13:18;5.60;83.70
16521;DHT22;8373;48.110;11.522;2022-11-25T07:15:45;5.60;83.70
16521;DHT22;8373;48.110;11.522;2022-11-25T07:18:13;5.40;83.90
16521;DHT22;8373;48.110;11.522;2022-11-25T07:20:40;5.30;84.30
16521;DHT22;8373;48.110;11.522;2022-11-25T07:23:07;5.30;85.10
16521;DHT22;8373;48.110;11.522;2022-11-25T07:25:34;5.30;85.10
16521;DHT22;8373;48.110;11.522;2022-11-25T07:28:01;5.30;85.20
16521;DHT22;8373;48.110;11.522;2022-11-25T07:30:28;5.30;84.70
16521;DHT22;8373;48.110;11.522;2022-11-25T07:32:55;5.20;84.10
16521;DHT22;8373;48.110;11.522;2022-11-25T07:35:24;5.30;84.20
16521;DHT22;8373;48.110;11.522;2022-11-25T07:37:50;5.40;83.40
16521;DHT22;8373;48.110;11.522;2022-11-25T07:40:18;5.40;82.70
16521;DHT22;8373;48.110;11.522;2022-11-25T07:42:45;5.60;82.60
16521;DHT22;8373;48.110;11.522;2022-11-25T07:45:12;5.70;82.20
16521;DHT22;8373;48.110;11.522;2022-11-25T07:47:39;5.70;81.40
16521;DHT22;8373;48.110;11.522;2022-11-25T07:50:07;5.90;81.30
16521;DHT22;8373;48.110;11.522;2022-11-25T07:52:37;6.00;80.50
16521;DHT22;8373;48.110;11.522;2022-11-25T07:55:06;6.00;79.70
16521;DHT22;8373;48.110;11.522;2022-11-25T07:57:33;6.10;80.10
16521;DHT22;8373;48.110;11.522;2022-11-25T08:00:00;6.20;80.10
16521;DHT22;8373;48.110;11.522;2022-11-25T08:02:27;6.30;79.70
16521;DHT22;8373;48.110;11.522;2022-11-25T08:04:54;6.40;79.10
16521;DHT22;8373;48.110;11.522;2022-11-25T08:07:21;6.50;78.70
16521;DHT22;8373;48.110;11.522;2022-11-25T08:09:49;6.60;78.30
16521;DHT22;8373;48.110;11.522;2022-11-25T08:12:17;6.60;77.80
16521;DHT22;8373;48.110;11.522;2022-11-25T08:14:44;6.70;76.90
16521;DHT22;8373;48.110;11.522;2022-11-25T08:17:11;6.60;75.80
16521;DHT22;8373;48.110;11.522;2022-11-25T08:19:38;6.60;75.10
16521;DHT22;8373;48.110;11.522;2022-11-25T08:31:11;6.90;74.50
16521;DHT22;8373;48.110;11.522;2022-11-25T08:36:24;7.00;73.60
16521;DHT22;8373;48.110;11.522;2022-11-25T08:38:53;6.90;74.00
16521;DHT22;8373;48.110;11.522;2022-11-25T08:41:24;7.00;73.90
16521;DHT22;8373;48.110;11.522;2022-11-25T08:43:51;7.10;74.40
16521;DHT22;8373;48.110;11.522;2022-11-25T08:46:22;7.20;74.50
16521;DHT22;8373;48.110;11.522;2022-11-25T08:48:50;7.20;74.70
16521;DHT22;8373;48.110;11.522;2022-11-25T08:51:19;7.30;75.30
16521;DHT22;8373;48.110;11.522;2022-11-25T08:53:47;7.50;76.00
16521;DHT22;8373;48.110;11.522;2022-11-25T08:56:16;7.60;75.70
16521;DHT22;8373;48.110;11.522;2022-11-25T08:58:43;7.70;73.60
16521;DHT22;8373;48.110;11.522;2022-11-25T09:01:11;7.80;73.60
16521;DHT22;8373;48.110;11.522;2022-11-25T09:03:43;7.90;73.80
16521;DHT22;8373;48.110;11.522;2022-11-25T09:06:10;8.10;73.20
16521;DHT22;8373;48.110;11.522;2022-11-25T09:08:39;8.20;72.70
16521;DHT22;8373;48.110;11.522;2022-11-25T09:11:06;8.30;72.30
16521;DHT22;8373;48.110;11.522;2022-11-25T09:13:34;8.30;71.60
16521;DHT22;8373;48.110;11.522;2022-11-25T09:16:01;8.30;71.60
16521;DHT22;8373;48.110;11.522;2022-11-25T09:18:28;8.30;72.10
16521;DHT22;8373;48.110;11.522;2022-11-25T09:20:58;8.40;72.70
16521;DHT22;8373;48.110;11.522;2022-11-25T09:23:27;8.50;72.80
16521;DHT22;8373;48.110;11.522;2022-11-25T09:25:55;8.60;72.40
16521;DHT22;8373;48.110;11.522;2022-11-25T09:28:24;8.60;71.90
16521;DHT22;8373;48.110;11.522;2022-11-25T09:30:52;8.70;72.10
16521;DHT22;8373;48.110;11.522;2022-11-25T09:33:19;8.80;71.90
16521;DHT22;8373;48.110;11.522;2022-11-25T09:35:46;9.00;71.40
16521;DHT22;8373;48.110;11.522;2022-11-25T09:38:16;9.40;70.90
16521;DHT22;8373;48.110;11.522;2022-11-25T09:40:48;10.10;69.90
16521;DHT22;8373;48.110;11.522;2022-11-25T09:43:24;11.90;68.50
16521;DHT22;8373;48.110;11.522;2022-11-25T09:46:29;13.90;62.80
16521;DHT22;8373;48.110;11.522;2022-11-25T09:52:09;17.70;48.50
16521;DHT22;8373;48.110;11.522;2022-11-25T09:54:42;19.70;43.10
16521;DHT22;8373;48.110;11.522;2022-11-25T09:57:18;20.80;38.20
16521;DHT22;8373;48.110;11.522;2022-11-25T09:59:57;22.10;36.30
16521;DHT22;8373;48.110;11.522;2022-11-25T10:02:31;22.90;33.90
16521;DHT22;8373;48.110;11.522;2022-11-25T10:05:04;22.20;31.80
16521;DHT22;8373;48.110;11.522;2022-11-25T10:07:37;20.60;31.80
16521;DHT22;8373;48.110;11.522;2022-11-25T10:10:16;19.10;33.50
16521;DHT22;8373;48.110;11.522;2022-11-25T10:12:44;17.70;35.70
16521;DHT22;8373;48.110;11.522;2022-11-25T10:15:16;16.50;37.80
16521;DHT22;8373;48.110;11.522;2022-11-25T10:17:46;15.80;40.40
16521;DHT22;8373;48.110;11.522;2022-11-25T10:20:18;15.40;41.90
16521;DHT22;8373;48.110;11.522;2022-11-25T10:22:47;15.00;42.90
16521;DHT22;8373;48.110;11.522;2022-11-25T10:25:19;14.80;43.90
16521;DHT22;8373;48.110;11.522;2022-11-25T10:27:50;14.70;44.80
16521;DHT22;8373;48.110;11.522;2022-11-25T10:30:21;14.60;44.70
16521;DHT22;8373;48.110;11.522;2022-11-25T10:32:51;14.60;44.70
16521;DHT22;8373;48.110;11.522;2022-11-25T10:35:30;14.50;45.10
16521;DHT22;8373;48.110;11.522;2022-11-25T10:37:59;14.50;45.60
16521;DHT22;8373;48.110;11.522;2022-11-25T10:40:28;14.50;45.80
16521;DHT22;8373;48.110;11.522;2022-11-25T10:42:55;14.60;46.40
16521;DHT22;8373;48.110;11.522;2022-11-25T10:45:28;14.80;46.50
16521;DHT22;8373;48.110;11.522;2022-11-25T10:48:08;15.00;46.20
16521;DHT22;8373;48.110;11.522;2022-11-25T10:50:50;15.10;45.90
16521;DHT22;8373;48.110;11.522;2022-11-25T10:53:23;15.40;45.90
16521;DHT22;8373;48.110;11.522;2022-11-25T10:56:03;15.70;44.80
16521;DHT22;8373;48.110;11.522;2022-11-25T10:58:32;15.80;43.30
16521;DHT22;8373;48.110;11.522;2022-11-25T11:01:06;15.80;43.00
16521;DHT22;8373;48.110;11.522;2022-11-25T11:03:38;15.70;43.80
16521;DHT22;8373;48.110;11.522;2022-11-25T11:06:05;15.50;43.70
16521;DHT22;8373;48.110;11.522;2022-11-25T11:08:37;15.30;43.40
16521;DHT22;8373;48.110;11.522;2022-11-25T11:11:14;14.90;43.10
16521;DHT22;8373;48.110;11.522;2022-11-25T11:13:42;14.60;43.80
16521;DHT22;8373;48.110;11.522;2022-11-25T11:16:26;14.20;44.20
16521;DHT22;8373;48.110;11.522;2022-11-25T11:18:55;13.90;45.50
16521;DHT22;8373;48.110;11.522;2022-11-25T11:21:27;13.50;45.80
16521;DHT22;8373;48.110;11.522;2022-11-25T11:23:55;13.30;47.20
16521;DHT22;8373;48.110;11.522;2022-11-25T11:26:27;13.10;48.10
16521;DHT22;8373;48.110;11.522;2022-11-25T11:28:59;13.00;48.20
16521;DHT22;8373;48.110;11.522;2022-11-25T11:31:30;13.00;49.00
16521;DHT22;8373;48.110;11.522;2022-11-25T11:34:05;12.80;49.20
16521;DHT22;8373;48.110;11.522;2022-11-25T11:36:47;12.90;49.70
16521;DHT22;8373;48.110;11.522;2022-11-25T11:39:27;13.00;49.80
16521;DHT22;8373;48.110;11.522;2022-11-25T11:42:06;13.10;50.20
16521;DHT22;8373;48.110;11.522;2022-11-25T11:44:39;13.30;50.70
16521;DHT22;8373;48.110;11.522;2022-11-25T11:47:20;13.20;49.90
16521;DHT22;8373;48.110;11.522;2022-11-25T11:50:03;13.20;50.20
16521;DHT22;8373;48.110;11.522;2022-11-25T11:52:44;14.30;50.00
16521;DHT22;8373;48.110;11.522;2022-11-25T11:55:25;15.70;47.70
16521;DHT22;8373;48.110;11.522;2022-11-25T11:58:01;17.00;45.00
16521;DHT22;8373;48.110;11.522;2022-11-25T12:00:34;18.80;42.30
16521;DHT22;8373;48.110;11.522;2022-11-25T12:03:10;19.70;39.20
16521;DHT22;8373;48.110;11.522;2022-11-25T12:05:39;20.90;37.60
16521;DHT22;8373;48.110;11.522;2022-11-25T12:08:10;21.00;34.80
16521;DHT22;8373;48.110;11.522;2022-11-25T12:10:42;20.70;34.80
16521;DHT22;8373;48.110;11.522;2022-11-25T12:13:19;20.00;35.30
16521;DHT22;8373;48.110;11.522;2022-11-25T12:15:55;19.20;36.30
16521;DHT22;8373;48.110;11.522;2022-11-25T12:18:37;18.40;38.00
16521;DHT22;8373;48.110;11.522;2022-11-25T12:21:07;17.90;39.10
16521;DHT22;8373;48.110;11.522;2022-11-25T12:23:43;17.50;40.00
16521;DHT22;8373;48.110;11.522;2022-11-25T12:26:19;17.30;40.40
16521;DHT22;8373;48.110;11.522;2022-11-25T12:28:55;17.00;41.00
16521;DHT22;8373;48.110;11.522;2022-11-25T12:31:26;16.90;41.80
16521;DHT22;8373;48.110;11.522;2022-11-25T12:34:00;16.70;41.80
16521;DHT22;8373;48.110;11.522;2022-11-25T12:36:31;16.50;42.20
16521;DHT22;8373;48.110;11.522;2022-11-25T12:39:02;16.30;42.70
16521;DHT22;8373;48.110;11.522;2022-11-25T12:41:37;16.30;43.70
16521;DHT22;8373;48.110;11.522;2022-11-25T12:44:12;16.30;44.10
16521;DHT22;8373;48.110;11.522;2022-11-25T12:46:43;16.20;44.20
16521;DHT22;8373;48.110;11.522;2022-11-25T12:49:16;16.20;44.50
16521;DHT22;8373;48.110;11.522;2022-11-25T12:51:55;16.10;44.90
16521;DHT22;8373;48.110;11.522;2022-11-25T12:54:36;16.00;45.10
16521;DHT22;8373;48.110;11.522;2022-11-25T12:57:37;16.00;45.50
16521;DHT22;8373;48.110;11.522;2022-11-25T13:00:13;15.90;45.80
16521;DHT22;8373;48.110;11.522;2022-11-25T13:05:58;15.80;45.90
16521;DHT22;8373;48.110;11.522;2022-11-25T13:08:40;15.80;45.80
16521;DHT22;8373;48.110;11.522;2022-11-25T13:14:24;15.80;46.50
16521;DHT22;8373;48.110;11.522;2022-11-25T13:16:56;15.60;46.90
16521;DHT22;8373;48.110;11.522;2022-11-25T13:19:24;15.50;47.30
16521;DHT22;8373;48.110;11.522;2022-11-25T13:21:56;15.40;47.50
16521;DHT22;8373;48.110;11.522;2022-11-25T13:24:30;15.10;48.10
16521;DHT22;8373;48.110;11.522;2022-11-25T13:26:58;14.80;48.50
16521;DHT22;8373;48.110;11.522;2022-11-25T13:29:57;14.70;49.30
16521;DHT22;8373;48.110;11.522;2022-11-25T13:32:39;14.70;50.10
16521;DHT22;8373;48.110;11.522;2022-11-25T13:35:47;14.60;50.60
16521;DHT22;8373;48.110;11.522;2022-11-25T13:38:35;14.50;51.10
16521;DHT22;8373;48.110;11.522;2022-11-25T13:41:19;14.40;51.80
16521;DHT22;8373;48.110;11.522;2022-11-25T13:43:58;14.20;51.90
16521;DHT22;8373;48.110;11.522;2022-11-25T13:46:36;14.00;52.20
16521;DHT22;8373;48.110;11.522;2022-11-25T13:49:06;13.90;55.00
16521;DHT22;8373;48.110;11.522;2022-11-25T13:51:48;13.80;53.90
16521;DHT22;8373;48.110;11.522;2022-11-25T13:54:17;13.70;53.70
16521;DHT22;8373;48.110;11.522;2022-11-25T13:56:58;13.70;53.80
16521;DHT22;8373;48.110;11.522;2022-11-25T13:59:35;13.60;54.20
16521;DHT22;8373;48.110;11.522;2022-11-25T14:02:37;13.60;54.50
16521;DHT22;8373;48.110;11.522;2022-11-25T14:08:29;13.40;55.20
16521;DHT22;8373;48.110;11.522;2022-11-25T14:14:19;13.20;55.70
16521;DHT22;8373;48.110;11.522;2022-11-25T14:17:02;13.20;56.00
16521;DHT22;8373;48.110;11.522;2022-11-25T14:22:41;13.10;56.80
16521;DHT22;8373;48.110;11.522;2022-11-25T14:25:20;13.00;57.20
16521;DHT22;8373;48.110;11.522;2022-11-25T14:27:56;12.80;57.20
16521;DHT22;8373;48.110;11.522;2022-11-25T14:30:25;12.80;57.60
16521;DHT22;8373;48.110;11.522;2022-11-25T14:32:55;12.70;58.20
16521;DHT22;8373;48.110;11.522;2022-11-25T14:35:30;12.60;58.70
16521;DHT22;8373;48.110;11.522;2022-11-25T14:38:00;12.40;59.90
16521;DHT22;8373;48.110;11.522;2022-11-25T14:40:34;12.30;61.20
16521;DHT22;8373;48.110;11.522;2022-11-25T14:43:04;12.30;62.40
16521;DHT22;8373;48.110;11.522;2022-11-25T14:45:34;12.30;63.70
16521;DHT22;8373;48.110;11.522;2022-11-25T14:48:12;12.20;64.70
16521;DHT22;8373;48.110;11.522;2022-11-25T14:50:39;12.00;66.10
16521;DHT22;8373;48.110;11.522;2022-11-25T14:53:07;11.90;67.50
16521;DHT22;8373;48.110;11.522;2022-11-25T14:55:37;11.90;69.00
16521;DHT22;8373;48.110;11.522;2022-11-25T14:58:04;11.90;69.90
16521;DHT22;8373;48.110;11.522;2022-11-25T15:00:30;11.90;70.80
16521;DHT22;8373;48.110;11.522;2022-11-25T15:03:00;11.80;71.80
16521;DHT22;8373;48.110;11.522;2022-11-25T15:05:31;11.70;72.80
16521;DHT22;8373;48.110;11.522;2022-11-25T15:08:02;11.70;74.20
16521;DHT22;8373;48.110;11.522;2022-11-25T15:10:31;11.60;75.30
16521;DHT22;8373;48.110;11.522;2022-11-25T15:13:03;11.50;76.30
16521;DHT22;8373;48.110;11.522;2022-11-25T15:15:34;11.40;77.50
16521;DHT22;8373;48.110;11.522;2022-11-25T15:18:03;11.40;78.60
16521;DHT22;8373;48.110;11.522;2022-11-25T15:20:31;11.30;79.20
16521;DHT22;8373;48.110;11.522;2022-11-25T15:23:00;11.20;80.30
16521;DHT22;8373;48.110;11.522;2022-11-25T15:25:27;11.10;81.10
16521;DHT22;8373;48.110;11.522;2022-11-25T15:27:54;11.00;81.80
16521;DHT22;8373;48.110;11.522;2022-11-25T15:30:25;11.00;82.80
16521;DHT22;8373;48.110;11.522;2022-11-25T15:32:53;10.90;83.30
16521;DHT22;8373;48.110;11.522;2022-11-25T15:35:22;10.80;83.90
16521;DHT22;8373;48.110;11.522;2022-11-25T15:37:50;10.90;84.80
16521;DHT22;8373;48.110;11.522;2022-11-25T15:40:32;10.90;85.20
16521;DHT22;8373;48.110;11.522;2022-11-25T15:43:03;10.90;85.70
16521;DHT22;8373;48.110;11.522;2022-11-25T15:45:36;10.90;86.10
16521;DHT22;8373;48.110;11.522;2022-11-25T15:48:13;10.90;86.30
16521;DHT22;8373;48.110;11.522;2022-11-25T15:50:42;10.90;86.20
16521;DHT22;8373;48.110;11.522;2022-11-25T15:53:19;10.80;86.20
16521;DHT22;8373;48.110;11.522;2022-11-25T15:55:49;10.70;86.70
16521;DHT22;8373;48.110;11.522;2022-11-25T15:58:18;10.60;86.70
16521;DHT22;8373;48.110;11.522;2022-11-25T16:01:03;10.40;87.10
16521;DHT22;8373;48.110;11.522;2022-11-25T16:03:31;10.30;87.90
16521;DHT22;8373;48.110;11.522;2022-11-25T16:06:00;10.30;88.50
16521;DHT22;8373;48.110;11.522;2022-11-25T16:08:34;10.30;88.80
16521;DHT22;8373;48.110;11.522;2022-11-25T16:11:13;10.20;89.00
16521;DHT22;8373;48.110;11.522;2022-11-25T16:13:43;10.10;89.50
16521;DHT22;8373;48.110;11.522;2022-11-25T16:16:24;10.10;90.00
16521;DHT22;8373;48.110;11.522;2022-11-25T16:19:02;10.00;90.10
16521;DHT22;8373;48.110;11.522;2022-11-25T16:21:40;9.90;90.70
16521;DHT22;8373;48.110;11.522;2022-11-25T16:24:19;9.80;91.00
16521;DHT22;8373;48.110;11.522;2022-11-25T16:26:50;9.80;91.20
16521;DHT22;8373;48.110;11.522;2022-11-25T16:29:19;9.80;91.50
16521;DHT22;8373;48.110;11.522;2022-11-25T16:31:49;9.80;91.70
16521;DHT22;8373;48.110;11.522;2022-11-25T16:34:18;9.90;91.70